»·PEaware :: N3572T KSBA-KONT

N3572T :: KSBA-KONT

FLIGHT INFORMATION

Flight Status: Arrived
Operator: Privately registered:
United States
More flights under this callsign
Pilot: Thomas Horn (5912)
Aircraft: PIPER PA-28 CHEROKEE ARCHER
(P28A)
More flights by this aircraft type
Origin: KSBA Santa Barbara Mun
United States
Destination: KONT Ontario Intl
United States
More flights between these airports :: More routes between these airports
Route: +VTU282R KWANG CMA VNY V186 PDZ
File this flight plan on PilotEdge
Remarks: SBAN16
Altitude:
(Current/Filed)
5,000ft
Speed:
(Current/Filed)
120kts
Departed: 03-Jan-17 09:58 AM
Arrived: 03-Jan-17 11:16 AM
Distance/Time
Traveled:
113nm/1:18
Distance/Time
To Go:
Arrived

Flight Plot

Page will automatically refresh every two minutes.

Flight plan parsing failed; only flown route is shown


Map Options




Map Legend


Flown Route
Filed Route
Departure Airport
Arrival Airport
Navaid (VOR, NDB)
Fix

Horizontal Profiles

Position Reports

Time Latitude Longitude Heading Altitude Ground
Speed
03-Jan-17 09:33 34.432586 -119.835078 69 13ft 0kts
03-Jan-17 09:34 34.432586 -119.835078 69 13ft 0kts
03-Jan-17 09:35 34.432586 -119.835078 69 13ft 0kts
03-Jan-17 09:36 34.432586 -119.835078 69 13ft 0kts
03-Jan-17 09:37 34.432586 -119.835078 69 13ft 0kts
03-Jan-17 09:38 34.432586 -119.835078 69 13ft 0kts
03-Jan-17 09:39 34.432586 -119.835078 69 13ft 0kts
03-Jan-17 09:40 34.432586 -119.835078 69 13ft 0kts
03-Jan-17 09:41 34.432586 -119.835078 69 13ft 0kts
03-Jan-17 09:42 34.432586 -119.835078 69 13ft 0kts
03-Jan-17 09:43 34.432586 -119.835078 69 13ft 0kts
03-Jan-17 09:44 34.432586 -119.835078 69 13ft 0kts
03-Jan-17 09:45 34.432587 -119.835077 69 13ft 0kts
03-Jan-17 09:46 34.432588 -119.835073 69 13ft 0kts
03-Jan-17 09:47 34.432589 -119.835069 69 13ft 0kts
03-Jan-17 09:48 34.432590 -119.835065 69 13ft 0kts
03-Jan-17 09:49 34.432592 -119.835061 69 13ft 0kts
03-Jan-17 09:50 34.432593 -119.835056 69 13ft 0kts
03-Jan-17 09:51 34.432594 -119.835052 69 13ft 0kts
03-Jan-17 09:52 34.432596 -119.835048 69 13ft 0kts
03-Jan-17 09:53 34.432597 -119.835044 69 13ft 0kts
03-Jan-17 09:54 34.432599 -119.835036 69 13ft 0kts
03-Jan-17 09:55 34.432601 -119.835029 69 13ft 0kts
03-Jan-17 09:56 34.432475 -119.834932 231 13ft 4kts
03-Jan-17 09:57 34.428909 -119.835293 176 13ft 13kts
03-Jan-17 09:58 34.427892 -119.837279 266 13ft 46kts
03-Jan-17 09:59 34.426843 -119.865278 267 798ft 90kts
03-Jan-17 10:00 34.425947 -119.897603 270 1713ft 98kts
03-Jan-17 10:01 34.423004 -119.929606 257 2674ft 94kts
03-Jan-17 10:02 34.402006 -119.915580 114 3456ft 113kts
03-Jan-17 10:03 34.385965 -119.881870 114 4230ft 118kts
03-Jan-17 10:04 34.374274 -119.845247 89 4959ft 113kts
03-Jan-17 10:05 34.368744 -119.802510 88 5056ft 136kts
03-Jan-17 10:06 34.363291 -119.757013 88 5055ft 136kts
03-Jan-17 10:07 34.358240 -119.711543 88 5054ft 136kts
03-Jan-17 10:08 34.353135 -119.665981 88 5054ft 136kts
03-Jan-17 10:09 34.348419 -119.620665 88 5054ft 135kts
03-Jan-17 10:10 34.341410 -119.575672 109 5053ft 142kts
03-Jan-17 10:11 34.323024 -119.533451 112 5057ft 141kts
03-Jan-17 10:12 34.304492 -119.491396 111 5056ft 141kts
03-Jan-17 10:13 34.297849 -119.446590 84 5056ft 133kts
03-Jan-17 10:14 34.292584 -119.402294 106 5055ft 138kts
03-Jan-17 10:15 34.277927 -119.359227 106 5056ft 138kts
03-Jan-17 10:16 34.267002 -119.315333 97 5056ft 135kts
03-Jan-17 10:17 34.257821 -119.271187 99 5048ft 136kts
03-Jan-17 10:18 34.246239 -119.225822 102 4968ft 137kts
03-Jan-17 10:19 34.234692 -119.182094 101 4958ft 136kts
03-Jan-17 10:20 34.223672 -119.138226 101 4959ft 135kts
03-Jan-17 10:21 34.213299 -119.095025 86 4959ft 135kts
03-Jan-17 10:22 34.214244 -119.049313 80 4971ft 134kts
03-Jan-17 10:23 34.216480 -119.004394 81 4955ft 130kts
03-Jan-17 10:24 34.217999 -118.960879 82 4941ft 128kts
03-Jan-17 10:25 34.218560 -118.918062 85 4939ft 127kts
03-Jan-17 10:26 34.218450 -118.875402 84 4940ft 126kts
03-Jan-17 10:27 34.218902 -118.832458 84 4960ft 132kts
03-Jan-17 10:28 34.219499 -118.787438 84 4966ft 134kts
03-Jan-17 10:29 34.220276 -118.742361 85 4972ft 134kts
03-Jan-17 10:30 34.220596 -118.697225 90 4998ft 136kts
03-Jan-17 10:31 34.221231 -118.653228 84 4941ft 126kts
03-Jan-17 10:32 34.222428 -118.610886 88 4932ft 125kts
03-Jan-17 10:33 34.222078 -118.568789 87 4926ft 126kts
03-Jan-17 10:34 34.222183 -118.526627 87 4931ft 125kts
03-Jan-17 10:35 34.220902 -118.484614 105 4919ft 126kts
03-Jan-17 10:36 34.209189 -118.444753 107 4943ft 125kts
03-Jan-17 10:37 34.197512 -118.404782 107 4951ft 126kts
03-Jan-17 10:38 34.186443 -118.364624 107 4944ft 126kts
03-Jan-17 10:39 34.173988 -118.325086 110 4943ft 126kts
03-Jan-17 10:40 34.160745 -118.285963 111 4944ft 126kts
03-Jan-17 10:41 34.146720 -118.246938 111 4946ft 126kts
03-Jan-17 10:42 34.133135 -118.206024 110 4964ft 132kts
03-Jan-17 10:43 34.120103 -118.164806 109 4953ft 128kts
03-Jan-17 10:44 34.108164 -118.124996 109 4940ft 125kts
03-Jan-17 10:45 34.097030 -118.088578 110 4954ft 125kts
03-Jan-17 10:46 34.084385 -118.048925 110 4973ft 129kts
03-Jan-17 10:47 34.072700 -118.007308 109 4988ft 129kts
03-Jan-17 10:48 34.060754 -117.967188 108 4975ft 126kts
03-Jan-17 10:49 34.049053 -117.927394 108 4972ft 126kts
03-Jan-17 10:50 34.037082 -117.887755 109 4971ft 126kts
03-Jan-17 10:51 34.024856 -117.848045 109 4970ft 125kts
03-Jan-17 10:52 34.012730 -117.808487 109 4969ft 126kts
03-Jan-17 10:53 34.003422 -117.768166 94 4970ft 125kts
03-Jan-17 10:54 33.999927 -117.726620 94 4963ft 124kts
03-Jan-17 10:55 33.996345 -117.685103 94 4963ft 124kts
03-Jan-17 10:56 33.992841 -117.643426 94 4966ft 124kts
03-Jan-17 10:57 33.989287 -117.601894 94 4970ft 125kts
03-Jan-17 10:58 33.985658 -117.559900 94 4973ft 126kts
03-Jan-17 10:59 33.981881 -117.517643 94 4965ft 127kts
03-Jan-17 11:00 33.978172 -117.475260 94 4961ft 126kts
03-Jan-17 11:01 33.974561 -117.433096 94 4960ft 126kts
03-Jan-17 11:02 33.970862 -117.390864 93 4959ft 127kts
03-Jan-17 11:03 33.967176 -117.348507 93 4955ft 127kts
03-Jan-17 11:04 33.968492 -117.307316 42 4819ft 129kts
03-Jan-17 11:05 34.001290 -117.295115 12 4184ft 121kts
03-Jan-17 11:06 34.034276 -117.285545 13 4119ft 118kts
03-Jan-17 11:07 34.064856 -117.280682 328 4053ft 112kts
03-Jan-17 11:08 34.065364 -117.315396 253 4061ft 117kts
03-Jan-17 11:09 34.056624 -117.354190 259 4039ft 121kts
03-Jan-17 11:10 34.055351 -117.394941 268 3924ft 121kts
03-Jan-17 11:11 34.054145 -117.437149 270 3322ft 128kts
03-Jan-17 11:12 34.055185 -117.476765 266 2637ft 107kts
03-Jan-17 11:13 34.055109 -117.510041 263 2179ft 94kts
03-Jan-17 11:14 34.055117 -117.540263 268 1644ft 87kts
03-Jan-17 11:15 34.055015 -117.567666 269 1269ft 78kts
03-Jan-17 11:16 34.055001 -117.588690 271 947ft 39kts
03-Jan-17 11:17 34.054486 -117.593927 241 947ft 0kts
03-Jan-17 11:18 34.053885 -117.598800 269 947ft 21kts

Navigation Log

Ident Type Via Name
Flight plan parsing failed, navigation log unavailable